createdAt,value
2023-05-09T00:01:16.026Z,13.73
2023-05-09T00:03:43.094Z,14.90
2023-05-09T00:06:12.797Z,14.57
2023-05-09T00:08:39.482Z,16.07
2023-05-09T00:11:06.108Z,14.73
2023-05-09T00:13:34.086Z,13.70
2023-05-09T00:16:01.115Z,14.00
2023-05-09T00:18:28.466Z,15.20
2023-05-09T00:20:54.965Z,14.23
2023-05-09T00:23:21.534Z,14.53
2023-05-09T00:25:48.146Z,14.10
2023-05-09T00:28:14.984Z,13.90
2023-05-09T00:30:41.619Z,13.87
2023-05-09T00:33:08.176Z,16.37
2023-05-09T00:35:35.172Z,15.53
2023-05-09T00:38:01.700Z,14.43
2023-05-09T00:40:29.255Z,15.40
2023-05-09T00:42:58.269Z,15.30
2023-05-09T00:45:25.271Z,15.20
2023-05-09T00:47:51.966Z,13.50
2023-05-09T00:50:19.290Z,14.73
2023-05-09T00:52:45.846Z,14.00
2023-05-09T00:55:13.625Z,13.67
2023-05-09T00:57:40.234Z,14.20
2023-05-09T01:00:13.022Z,14.53
2023-05-09T01:02:52.867Z,15.20
2023-05-09T01:05:20.390Z,14.27
2023-05-09T01:08:08.930Z,15.57
2023-05-09T01:10:40.963Z,15.30
2023-05-09T01:13:15.713Z,14.53
2023-05-09T01:15:50.134Z,15.23
2023-05-09T01:19:02.861Z,15.30
2023-05-09T01:21:32.299Z,15.43
2023-05-09T01:24:20.650Z,15.50
2023-05-09T01:27:22.584Z,14.60
2023-05-09T01:29:55.575Z,14.47
2023-05-09T01:32:27.596Z,14.17
2023-05-09T01:34:57.189Z,14.87
2023-05-09T01:37:30.399Z,14.90
2023-05-09T01:40:00.872Z,14.73
2023-05-09T01:42:38.637Z,15.50
2023-05-09T01:45:06.143Z,14.83
2023-05-09T01:47:32.920Z,15.00
2023-05-09T01:50:01.898Z,14.00
2023-05-09T01:52:29.517Z,14.10
2023-05-09T01:54:56.458Z,14.17
2023-05-09T01:57:23.410Z,14.77
2023-05-09T01:59:50.889Z,15.33
2023-05-09T02:02:17.472Z,14.43
2023-05-09T02:04:44.839Z,14.30
2023-05-09T02:07:12.429Z,14.63
2023-05-09T02:09:38.945Z,15.03
2023-05-09T02:12:06.846Z,15.80
2023-05-09T02:14:33.366Z,14.47
2023-05-09T02:17:06.372Z,15.30
2023-05-09T02:19:35.300Z,15.70
2023-05-09T02:22:04.667Z,14.70
2023-05-09T02:24:33.232Z,16.17
2023-05-09T02:27:02.608Z,15.03
2023-05-09T02:29:39.770Z,15.10
2023-05-09T02:32:11.769Z,15.97
2023-05-09T02:34:38.668Z,14.70
2023-05-09T02:37:06.508Z,16.57
2023-05-09T02:39:33.051Z,15.93
2023-05-09T02:42:10.789Z,15.60
2023-05-09T02:44:38.648Z,18.10
2023-05-09T02:47:06.645Z,15.80
2023-05-09T02:49:33.710Z,17.80
2023-05-09T02:52:01.535Z,17.43
2023-05-09T02:54:28.401Z,16.60
2023-05-09T02:56:54.937Z,16.90
2023-05-09T02:59:21.383Z,16.90
2023-05-09T03:01:47.906Z,16.17
2023-05-09T03:04:14.384Z,17.60
2023-05-09T03:06:41.004Z,18.27
2023-05-09T03:09:07.586Z,18.97
2023-05-09T03:11:36.585Z,16.70
2023-05-09T03:14:04.010Z,17.47
2023-05-09T03:16:31.003Z,16.70
2023-05-09T03:18:57.646Z,17.90
2023-05-09T03:21:24.251Z,16.60
2023-05-09T03:23:51.126Z,17.10
2023-05-09T03:26:17.717Z,17.20
2023-05-09T03:28:46.378Z,18.07
2023-05-09T03:31:12.922Z,16.70
2023-05-09T03:33:39.749Z,19.60
2023-05-09T03:36:06.431Z,20.97
2023-05-09T03:38:32.941Z,18.70
2023-05-09T03:40:59.574Z,19.70
2023-05-09T03:43:26.459Z,18.20
2023-05-09T03:45:52.928Z,19.87
2023-05-09T03:48:20.194Z,18.80
2023-05-09T03:50:46.709Z,19.10
2023-05-09T03:53:13.501Z,18.83
2023-05-09T03:55:40.041Z,19.63
2023-05-09T03:58:06.570Z,19.20
2023-05-09T04:00:33.110Z,20.00
2023-05-09T04:02:59.683Z,20.43
2023-05-09T04:05:27.090Z,20.00
2023-05-09T04:07:53.868Z,21.17
2023-05-09T04:10:20.490Z,20.27
2023-05-09T04:12:47.251Z,22.43
2023-05-09T04:15:14.017Z,19.30
2023-05-09T04:17:40.774Z,20.73
2023-05-09T04:20:08.286Z,20.03
2023-05-09T04:22:34.762Z,19.73
2023-05-09T04:25:02.012Z,19.83
2023-05-09T04:27:28.846Z,19.93
2023-05-09T04:29:55.655Z,20.40
2023-05-09T04:32:23.228Z,26.00
2023-05-09T04:34:49.974Z,19.67
2023-05-09T04:37:17.081Z,20.17
2023-05-09T04:39:44.032Z,19.87
2023-05-09T04:42:10.760Z,18.73
2023-05-09T04:44:37.221Z,18.17
2023-05-09T04:47:03.740Z,18.07
2023-05-09T04:49:30.361Z,16.87
2023-05-09T04:51:56.848Z,16.13
2023-05-09T04:54:23.370Z,18.10
2023-05-09T04:56:50.772Z,17.97
2023-05-09T04:59:17.317Z,17.43
2023-05-09T05:01:44.144Z,17.10
2023-05-09T05:04:10.685Z,16.80
2023-05-09T05:06:37.171Z,17.30
2023-05-09T05:09:03.890Z,16.43
2023-05-09T05:11:30.915Z,16.47
2023-05-09T05:13:57.394Z,18.33
2023-05-09T05:16:23.875Z,17.90
2023-05-09T05:18:50.751Z,18.20
2023-05-09T05:21:17.198Z,18.33
2023-05-09T05:23:43.828Z,18.90
2023-05-09T05:26:10.592Z,17.40
2023-05-09T05:28:37.060Z,18.97
2023-05-09T05:31:03.536Z,17.40
2023-05-09T05:33:30.026Z,18.27
2023-05-09T05:35:56.529Z,19.07
2023-05-09T05:38:23.097Z,17.70
2023-05-09T05:40:49.590Z,19.40
2023-05-09T05:43:16.052Z,18.07
2023-05-09T05:45:42.578Z,18.67
2023-05-09T05:48:09.129Z,19.37
2023-05-09T05:50:36.640Z,18.50
2023-05-09T05:53:03.305Z,18.83
2023-05-09T05:55:29.768Z,18.43
2023-05-09T05:57:56.518Z,18.43
2023-05-09T06:00:22.981Z,17.47
2023-05-09T06:02:49.744Z,16.37
2023-05-09T06:05:16.986Z,18.87
2023-05-09T06:07:44.281Z,17.87
2023-05-09T06:10:11.082Z,17.50
2023-05-09T06:12:37.682Z,17.80
2023-05-09T06:15:07.409Z,18.50
2023-05-09T06:17:34.701Z,19.10
2023-05-09T06:20:01.334Z,21.67
2023-05-09T06:22:27.843Z,21.43
2023-05-09T06:24:54.338Z,18.97
2023-05-09T06:27:20.905Z,21.10
2023-05-09T06:29:47.497Z,19.43
2023-05-09T06:32:13.994Z,19.63
2023-05-09T06:34:41.862Z,20.20
2023-05-09T06:37:08.382Z,21.17
2023-05-09T06:39:34.844Z,20.60
2023-05-09T06:42:01.338Z,19.30
2023-05-09T06:44:28.166Z,19.20
2023-05-09T06:46:55.438Z,19.90
2023-05-09T06:49:22.517Z,19.90
2023-05-09T06:51:49.038Z,23.17
2023-05-09T06:54:17.152Z,23.53
2023-05-09T06:56:43.652Z,21.27
2023-05-09T06:59:13.256Z,19.53
2023-05-09T07:01:40.916Z,19.20
2023-05-09T07:04:07.777Z,20.10
2023-05-09T07:06:34.323Z,19.43
2023-05-09T07:09:00.858Z,19.80
2023-05-09T07:11:27.383Z,18.40
2023-05-09T07:13:53.868Z,18.10
2023-05-09T07:16:22.876Z,19.80
2023-05-09T07:18:49.669Z,17.00
2023-05-09T07:21:16.243Z,17.67
2023-05-09T07:23:42.782Z,18.23
2023-05-09T07:26:09.282Z,17.70
2023-05-09T07:28:35.732Z,16.00
2023-05-09T07:31:02.211Z,17.23
2023-05-09T07:33:28.732Z,20.17
2023-05-09T07:35:55.581Z,19.93
2023-05-09T07:38:22.245Z,18.70
2023-05-09T07:40:48.742Z,20.80
2023-05-09T07:43:15.591Z,19.80
2023-05-09T07:45:42.114Z,20.13
2023-05-09T07:48:09.394Z,20.20
2023-05-09T07:50:35.937Z,17.33
2023-05-09T07:53:02.428Z,17.00
2023-05-09T07:55:29.189Z,14.40
2023-05-09T07:57:55.625Z,15.47
2023-05-09T08:00:23.930Z,15.07
2023-05-09T08:02:51.545Z,14.43
2023-05-09T08:05:18.351Z,14.30
2023-05-09T08:07:45.338Z,14.97
2023-05-09T08:10:12.359Z,13.67
2023-05-09T08:12:39.268Z,14.30
2023-05-09T08:15:06.373Z,14.77
2023-05-09T08:17:33.088Z,15.37
2023-05-09T08:19:59.544Z,15.33
2023-05-09T08:22:26.406Z,13.90
2023-05-09T08:24:52.868Z,13.30
2023-05-09T08:27:19.713Z,14.13
2023-05-09T08:29:46.209Z,14.00
2023-05-09T08:32:13.009Z,14.23
2023-05-09T08:34:39.573Z,13.10
2023-05-09T08:37:06.041Z,13.80
2023-05-09T08:39:34.939Z,13.30
2023-05-09T08:42:02.351Z,13.00
2023-05-09T08:44:30.463Z,13.20
2023-05-09T08:47:00.137Z,11.73
2023-05-09T08:49:26.810Z,11.67
2023-05-09T08:51:53.669Z,11.10
2023-05-09T08:54:22.914Z,11.63
2023-05-09T08:56:50.701Z,12.17
2023-05-09T08:59:18.562Z,11.00
2023-05-09T09:01:45.565Z,11.03
2023-05-09T09:04:12.258Z,11.97
2023-05-09T09:06:39.612Z,10.30
2023-05-09T09:09:08.538Z,12.57
2023-05-09T09:11:36.340Z,10.20
2023-05-09T09:14:12.804Z,11.43
2023-05-09T09:16:41.611Z,11.00
2023-05-09T09:19:12.494Z,10.77
2023-05-09T09:21:42.465Z,11.23
2023-05-09T09:24:14.221Z,11.43
2023-05-09T09:26:46.779Z,11.87
2023-05-09T09:32:02.069Z,11.43
2023-05-09T09:34:28.654Z,12.50
2023-05-09T09:36:55.271Z,12.07
2023-05-09T09:39:22.102Z,11.63
2023-05-09T09:41:49.031Z,11.80
2023-05-09T09:44:22.785Z,12.00
2023-05-09T09:46:50.674Z,11.47
2023-05-09T09:49:22.201Z,12.33
2023-05-09T09:51:53.992Z,11.33
2023-05-09T09:54:20.810Z,12.27
2023-05-09T09:56:49.670Z,11.97
2023-05-09T09:59:18.849Z,11.20
2023-05-09T10:02:05.121Z,12.07
2023-05-09T10:04:35.487Z,10.70
2023-05-09T10:07:04.996Z,11.30
2023-05-09T10:09:32.958Z,12.07
2023-05-09T10:12:09.536Z,11.00
2023-05-09T10:14:36.848Z,10.83
2023-05-09T10:17:05.077Z,10.63
2023-05-09T10:19:32.440Z,11.57
2023-05-09T10:22:04.170Z,10.73
2023-05-09T10:24:34.754Z,10.67
2023-05-09T10:27:06.973Z,10.00
2023-05-09T10:29:36.735Z,10.40
2023-05-09T10:32:18.202Z,9.60
2023-05-09T10:34:48.117Z,8.40
2023-05-09T10:37:16.110Z,9.30
2023-05-09T10:39:42.997Z,8.77
2023-05-09T10:42:09.807Z,8.13
2023-05-09T10:44:37.398Z,7.97
2023-05-09T10:47:04.244Z,6.77
2023-05-09T10:49:31.012Z,7.20
2023-05-09T10:51:57.481Z,7.87
2023-05-09T10:54:33.285Z,8.10
2023-05-09T10:57:00.821Z,7.57
2023-05-09T10:59:57.749Z,7.50
2023-05-09T11:02:34.960Z,7.00
2023-05-09T11:05:15.986Z,7.90
2023-05-09T11:07:43.378Z,8.07
2023-05-09T11:10:20.073Z,8.20
2023-05-09T11:12:58.149Z,6.80
2023-05-09T11:15:26.551Z,7.63
2023-05-09T11:18:07.442Z,7.40
2023-05-09T11:20:37.918Z,6.73
2023-05-09T11:23:05.984Z,7.33
2023-05-09T11:25:33.002Z,7.40
2023-05-09T11:28:01.788Z,8.07
2023-05-09T11:30:42.523Z,6.40
2023-05-09T11:33:31.197Z,7.80
2023-05-09T11:36:19.904Z,6.80
2023-05-09T11:38:47.551Z,7.40
2023-05-09T11:41:15.440Z,7.07
2023-05-09T11:43:42.911Z,6.70
2023-05-09T11:46:09.473Z,6.17
2023-05-09T11:48:39.817Z,6.57
2023-05-09T11:51:07.469Z,5.83
2023-05-09T11:53:34.278Z,6.50
2023-05-09T11:56:04.794Z,5.67
2023-05-09T11:58:31.648Z,5.90
2023-05-09T12:00:58.465Z,6.10
2023-05-09T12:03:25.224Z,6.20
2023-05-09T12:05:51.850Z,6.57
2023-05-09T12:08:18.556Z,6.43
2023-05-09T12:10:45.020Z,6.40
2023-05-09T12:13:12.056Z,6.43
2023-05-09T12:15:38.741Z,5.50
2023-05-09T12:18:07.827Z,6.07
2023-05-09T12:21:00.885Z,6.13
2023-05-09T12:23:27.350Z,7.10
2023-05-09T12:25:55.610Z,5.97
2023-05-09T12:28:25.855Z,6.47
2023-05-09T12:30:53.338Z,5.63
2023-05-09T12:33:21.181Z,5.53
2023-05-09T12:35:48.565Z,5.90
2023-05-09T12:38:22.477Z,5.80
2023-05-09T12:40:50.056Z,6.10
2023-05-09T12:43:17.444Z,5.90
2023-05-09T12:45:44.118Z,6.50
2023-05-09T12:48:11.774Z,6.27
2023-05-09T12:50:38.436Z,5.90
2023-05-09T12:53:05.213Z,6.93
2023-05-09T12:55:39.808Z,7.37
2023-05-09T12:58:06.909Z,7.00
2023-05-09T13:00:46.014Z,7.20
2023-05-09T13:03:25.074Z,7.93
2023-05-09T13:05:58.831Z,7.93
2023-05-09T13:08:26.692Z,7.73
2023-05-09T13:11:00.776Z,8.50
2023-05-09T13:13:34.714Z,9.20
2023-05-09T13:16:03.730Z,8.33
2023-05-09T13:18:30.396Z,6.90
2023-05-09T13:20:57.035Z,7.97
2023-05-09T13:23:23.543Z,7.10
2023-05-09T13:25:50.023Z,7.23
2023-05-09T13:28:16.556Z,7.50
2023-05-09T13:30:43.089Z,7.60
2023-05-09T13:33:24.540Z,8.43
2023-05-09T13:35:51.703Z,7.70
2023-05-09T13:38:18.153Z,8.20
2023-05-09T13:40:44.628Z,8.67
2023-05-09T13:43:11.230Z,8.90
2023-05-09T13:45:37.656Z,7.63
2023-05-09T13:48:04.598Z,8.27
2023-05-09T13:50:31.141Z,8.13
2023-05-09T13:52:58.142Z,8.27
2023-05-09T13:55:26.364Z,8.30
2023-05-09T13:57:52.851Z,9.17
2023-05-09T14:00:21.212Z,6.30
2023-05-09T14:02:48.371Z,5.43
2023-05-09T14:05:15.015Z,8.07
2023-05-09T14:07:42.727Z,7.70
2023-05-09T14:10:11.732Z,8.40
2023-05-09T14:12:39.953Z,9.90
2023-05-09T14:15:07.781Z,10.13
2023-05-09T14:17:34.338Z,11.23
2023-05-09T14:20:00.893Z,11.20
2023-05-09T14:22:28.190Z,8.17
2023-05-09T14:24:56.522Z,8.30
2023-05-09T14:27:23.174Z,7.00
2023-05-09T14:29:50.144Z,8.00
2023-05-09T14:32:17.326Z,8.50
2023-05-09T14:34:44.448Z,7.97
2023-05-09T14:37:14.206Z,8.63
2023-05-09T14:39:42.502Z,8.97
2023-05-09T14:42:11.383Z,8.40
2023-05-09T14:44:38.671Z,8.83
2023-05-09T14:47:05.771Z,9.73
2023-05-09T14:49:32.705Z,10.40
2023-05-09T14:51:59.415Z,10.70
2023-05-09T14:54:25.958Z,9.40
2023-05-09T14:56:52.663Z,9.00
2023-05-09T14:59:19.152Z,8.23
2023-05-09T15:01:46.220Z,9.63
2023-05-09T15:04:12.763Z,8.30
2023-05-09T15:06:39.683Z,9.83
2023-05-09T15:09:06.236Z,9.13
2023-05-09T15:11:43.744Z,10.27
2023-05-09T15:14:14.688Z,9.30
2023-05-09T15:16:41.391Z,10.40
2023-05-09T15:19:08.313Z,9.50
2023-05-09T15:21:35.353Z,11.20
2023-05-09T15:24:02.465Z,9.23
2023-05-09T15:26:29.996Z,8.70
2023-05-09T15:28:56.554Z,8.27
2023-05-09T15:31:24.905Z,9.27
2023-05-09T15:33:51.687Z,9.90
2023-05-09T15:36:18.404Z,9.20
2023-05-09T15:38:48.324Z,8.67
2023-05-09T15:41:15.409Z,6.87
2023-05-09T15:43:42.097Z,7.50
2023-05-09T15:46:08.865Z,6.60
2023-05-09T15:48:35.383Z,6.30
2023-05-09T15:51:03.919Z,5.33
2023-05-09T15:53:30.454Z,7.50
2023-05-09T15:55:57.038Z,6.80
2023-05-09T15:58:23.604Z,6.80
2023-05-09T16:00:50.193Z,6.70
2023-05-09T16:03:16.846Z,6.20
2023-05-09T16:05:43.807Z,6.73
2023-05-09T16:08:10.616Z,6.07
2023-05-09T16:10:37.048Z,5.37
2023-05-09T16:13:03.951Z,6.70
2023-05-09T16:15:30.509Z,6.50
2023-05-09T16:17:57.020Z,6.90
2023-05-09T16:20:23.577Z,6.37
2023-05-09T16:22:50.182Z,6.87
2023-05-09T16:25:16.913Z,6.20
2023-05-09T16:27:43.493Z,6.10
2023-05-09T16:30:10.481Z,6.77
2023-05-09T16:32:37.101Z,7.10
2023-05-09T16:35:04.174Z,7.23
2023-05-09T16:37:31.060Z,7.47
2023-05-09T16:39:59.405Z,8.03
2023-05-09T16:42:26.133Z,7.67
2023-05-09T16:44:52.642Z,6.93
2023-05-09T16:47:19.162Z,7.83
2023-05-09T16:49:46.021Z,7.73
2023-05-09T16:52:12.753Z,8.40
2023-05-09T16:54:39.567Z,8.93
2023-05-09T16:57:06.112Z,9.50
2023-05-09T16:59:32.851Z,10.40
2023-05-09T17:01:59.952Z,10.20
2023-05-09T17:04:27.414Z,11.27
2023-05-09T17:06:54.019Z,11.70
2023-05-09T17:09:20.634Z,12.40
2023-05-09T17:11:48.213Z,13.90
2023-05-09T17:14:14.776Z,15.37
2023-05-09T17:16:41.288Z,19.33
2023-05-09T17:19:07.790Z,20.20
2023-05-09T17:21:34.860Z,23.50
2023-05-09T17:24:02.143Z,22.77
2023-05-09T17:26:29.647Z,19.90
2023-05-09T17:28:56.268Z,22.03
2023-05-09T17:31:22.875Z,20.40
2023-05-09T17:33:49.519Z,20.83
2023-05-09T17:36:16.258Z,17.73
2023-05-09T17:38:43.157Z,18.43
2023-05-09T17:41:09.857Z,18.47
2023-05-09T17:43:36.369Z,18.17
2023-05-09T17:46:03.757Z,16.70
2023-05-09T17:48:30.313Z,15.57
2023-05-09T17:50:56.894Z,16.23
2023-05-09T17:53:23.603Z,16.00
2023-05-09T17:55:50.518Z,15.00
2023-05-09T17:58:16.998Z,16.20
2023-05-09T18:00:44.623Z,17.10
2023-05-09T18:03:11.414Z,17.00
2023-05-09T18:05:38.216Z,18.80
2023-05-09T18:08:05.610Z,16.90
2023-05-09T18:10:32.372Z,15.47
2023-05-09T18:12:59.050Z,15.60
2023-05-09T18:15:26.321Z,16.90
2023-05-09T18:17:54.694Z,17.53
2023-05-09T18:20:21.487Z,15.53
2023-05-09T18:22:48.063Z,14.87
2023-05-09T18:25:14.582Z,15.37
2023-05-09T18:27:41.090Z,16.13
2023-05-09T18:30:08.166Z,14.53
2023-05-09T18:32:34.641Z,16.50
2023-05-09T18:35:01.149Z,14.80
2023-05-09T18:37:27.813Z,15.87
2023-05-09T18:39:54.354Z,15.20
2023-05-09T18:42:20.849Z,16.47
2023-05-09T18:44:47.332Z,16.47
2023-05-09T18:47:13.999Z,16.90
2023-05-09T18:49:41.205Z,15.77
2023-05-09T18:52:09.171Z,17.50
2023-05-09T18:54:36.536Z,16.87
2023-05-09T18:57:03.314Z,17.50
2023-05-09T18:59:29.816Z,18.30
2023-05-09T19:01:56.249Z,18.00
2023-05-09T19:04:22.926Z,18.00
2023-05-09T19:06:49.531Z,18.73
2023-05-09T19:09:16.615Z,18.80
2023-05-09T19:11:43.325Z,19.20
2023-05-09T19:14:09.993Z,18.37
2023-05-09T19:16:36.668Z,18.60
2023-05-09T19:19:03.340Z,19.93
2023-05-09T19:21:30.202Z,18.60
2023-05-09T19:23:56.693Z,19.60
2023-05-09T19:26:23.351Z,18.10
2023-05-09T19:28:49.914Z,20.20
2023-05-09T19:31:18.938Z,21.30
2023-05-09T19:33:47.476Z,18.90
2023-05-09T19:36:14.262Z,18.60
2023-05-09T19:38:41.222Z,20.10
2023-05-09T19:41:07.896Z,20.10
2023-05-09T19:43:34.971Z,20.10
2023-05-09T19:46:01.572Z,18.77
2023-05-09T19:48:28.115Z,18.90
2023-05-09T19:50:58.470Z,18.70
2023-05-09T19:53:25.284Z,17.80
2023-05-09T19:55:52.200Z,17.37
2023-05-09T19:58:18.734Z,17.30
2023-05-09T20:00:45.871Z,17.30
2023-05-09T20:03:12.616Z,17.37
2023-05-09T20:05:39.516Z,18.17
2023-05-09T20:08:06.191Z,17.33
2023-05-09T20:10:32.972Z,16.30
2023-05-09T20:13:00.890Z,14.70
2023-05-09T20:15:27.836Z,16.50
2023-05-09T20:17:54.435Z,14.60
2023-05-09T20:20:21.513Z,15.73
2023-05-09T20:22:48.037Z,14.33
2023-05-09T20:25:14.753Z,15.50
2023-05-09T20:27:41.449Z,17.37
2023-05-09T20:30:08.396Z,16.10
2023-05-09T20:32:35.130Z,14.33
2023-05-09T20:35:02.007Z,14.73
2023-05-09T20:37:28.493Z,12.50
2023-05-09T20:39:54.981Z,13.03
2023-05-09T20:42:23.227Z,12.20
2023-05-09T20:44:51.453Z,10.40
2023-05-09T20:47:17.923Z,12.13
2023-05-09T20:49:44.397Z,10.80
2023-05-09T20:52:11.022Z,10.93
2023-05-09T20:54:37.661Z,12.07
2023-05-09T20:57:04.177Z,10.57
2023-05-09T20:59:31.007Z,12.60
2023-05-09T21:01:57.645Z,12.17
2023-05-09T21:04:24.276Z,11.13
2023-05-09T21:06:50.823Z,9.43
2023-05-09T21:09:17.334Z,9.30
2023-05-09T21:11:43.994Z,6.97
2023-05-09T21:14:10.916Z,6.77
2023-05-09T21:16:37.717Z,6.80
2023-05-09T21:19:06.043Z,6.60
2023-05-09T21:21:35.531Z,6.20
2023-05-09T21:24:04.233Z,5.50
2023-05-09T21:26:30.856Z,7.27
2023-05-09T21:28:57.550Z,4.83
2023-05-09T21:31:24.098Z,4.30
2023-05-09T21:33:51.976Z,4.37
2023-05-09T21:36:18.491Z,5.03
2023-05-09T21:38:45.443Z,4.20
2023-05-09T21:41:11.933Z,3.80
2023-05-09T21:43:38.702Z,4.20
2023-05-09T21:46:05.984Z,4.37
2023-05-09T21:48:32.815Z,3.90
2023-05-09T21:51:03.380Z,4.60
2023-05-09T21:53:29.946Z,3.87
2023-05-09T21:55:56.479Z,5.10
2023-05-09T21:58:22.950Z,3.90
2023-05-09T22:00:49.576Z,4.70
2023-05-09T22:03:16.213Z,4.57
2023-05-09T22:05:42.735Z,4.43
2023-05-09T22:08:09.266Z,5.17
2023-05-09T22:10:37.408Z,5.60
2023-05-09T22:13:03.925Z,5.23
2023-05-09T22:15:30.396Z,5.90
2023-05-09T22:17:56.871Z,5.83
2023-05-09T22:20:23.722Z,6.10
2023-05-09T22:22:50.377Z,5.27
2023-05-09T22:25:17.612Z,5.90
2023-05-09T22:27:44.117Z,6.23
2023-05-09T22:30:12.346Z,6.47
2023-05-09T22:32:39.608Z,6.13
2023-05-09T22:35:06.880Z,11.00
2023-05-09T22:37:33.425Z,10.00
2023-05-09T22:40:01.508Z,11.00
2023-05-09T22:42:29.373Z,13.67
2023-05-09T22:44:56.066Z,15.30
2023-05-09T22:47:22.932Z,14.77
2023-05-09T22:49:49.962Z,15.97
2023-05-09T22:52:17.140Z,16.97
2023-05-09T22:54:43.726Z,17.60
2023-05-09T22:57:10.700Z,18.03
2023-05-09T22:59:37.191Z,16.57
2023-05-09T23:02:04.661Z,12.40
2023-05-09T23:04:31.156Z,12.17
2023-05-09T23:06:57.737Z,9.47
2023-05-09T23:09:24.363Z,7.70
2023-05-09T23:11:51.515Z,9.63
2023-05-09T23:14:18.331Z,7.63
2023-05-09T23:16:44.770Z,6.37
2023-05-09T23:19:11.562Z,5.47
2023-05-09T23:21:38.265Z,5.20
2023-05-09T23:24:04.896Z,5.23
2023-05-09T23:26:31.332Z,5.10
2023-05-09T23:28:57.891Z,6.80
2023-05-09T23:31:24.411Z,7.90
2023-05-09T23:33:50.908Z,7.50
2023-05-09T23:36:17.594Z,9.30
2023-05-09T23:38:44.158Z,8.67
2023-05-09T23:41:10.801Z,9.23
2023-05-09T23:43:37.695Z,8.20
2023-05-09T23:46:04.346Z,8.70
2023-05-09T23:48:30.933Z,8.53
2023-05-09T23:50:57.827Z,9.67
2023-05-09T23:53:24.577Z,9.77
2023-05-09T23:55:51.430Z,9.00
2023-05-09T23:58:17.990Z,8.80
